sensor_id;sensor_type;location;lat;lon;timestamp;P1;durP1;ratioP1;P2;durP2;ratioP2
44126;SDS011;29786;50.798;7.302;2023-03-01T00:00:51;12.4;;;9.4;;
44126;SDS011;29786;50.798;7.302;2023-03-01T00:02:05;10.1;;;9;;
44126;SDS011;29786;50.798;7.302;2023-03-01T00:03:19;10.2;;;8.5;;
44126;SDS011;29786;50.798;7.302;2023-03-01T00:05:47;14.2;;;9.9;;
44126;SDS011;29786;50.798;7.302;2023-03-01T00:07:01;13.4;;;9.9;;
44126;SDS011;29786;50.798;7.302;2023-03-01T00:08:15;12.4;;;9.5;;
44126;SDS011;29786;50.798;7.302;2023-03-01T00:10:44;12.5;;;9.4;;
44126;SDS011;29786;50.798;7.302;2023-03-01T00:11:58;12.1;;;9.5;;
44126;SDS011;29786;50.798;7.302;2023-03-01T00:13:12;12.3;;;9.6;;
44126;SDS011;29786;50.798;7.302;2023-03-01T00:15:40;11.1;;;9.9;;
44126;SDS011;29786;50.798;7.302;2023-03-01T00:16:54;11.8;;;9.4;;
44126;SDS011;29786;50.798;7.302;2023-03-01T00:18:08;10.6;;;9.5;;
44126;SDS011;29786;50.798;7.302;2023-03-01T00:19:23;10.6;;;9.1;;
44126;SDS011;29786;50.798;7.302;2023-03-01T00:21:51;12.9;;;9.8;;
44126;SDS011;29786;50.798;7.302;2023-03-01T00:23:05;12;;;9.9;;
44126;SDS011;29786;50.798;7.302;2023-03-01T00:24:19;12.7;;;9.5;;
44126;SDS011;29786;50.798;7.302;2023-03-01T00:26:47;11.8;;;9.7;;
44126;SDS011;29786;50.798;7.302;2023-03-01T00:28:01;12.5;;;9.3;;
44126;SDS011;29786;50.798;7.302;2023-03-01T00:29:16;12.6;;;10.3;;
44126;SDS011;29786;50.798;7.302;2023-03-01T00:31:44;11.8;;;10.2;;
44126;SDS011;29786;50.798;7.302;2023-03-01T00:32:58;13.8;;;10.5;;
44126;SDS011;29786;50.798;7.302;2023-03-01T00:34:12;14.8;;;10;;
44126;SDS011;29786;50.798;7.302;2023-03-01T00:35:26;12.8;;;9.5;;
44126;SDS011;29786;50.798;7.302;2023-03-01T00:36:40;12.5;;;10.1;;
44126;SDS011;29786;50.798;7.302;2023-03-01T00:37:56;13.7;;;10.4;;
44126;SDS011;29786;50.798;7.302;2023-03-01T00:39:10;13;;;10.1;;
44126;SDS011;29786;50.798;7.302;2023-03-01T00:40:23;13.7;;;11;;
44126;SDS011;29786;50.798;7.302;2023-03-01T00:42:51;14.5;;;10.6;;
44126;SDS011;29786;50.798;7.302;2023-03-01T00:44:05;11.7;;;10.5;;
44126;SDS011;29786;50.798;7.302;2023-03-01T00:45:19;12.6;;;10.4;;
44126;SDS011;29786;50.798;7.302;2023-03-01T00:47:48;13.4;;;11.2;;
44126;SDS011;29786;50.798;7.302;2023-03-01T00:49:02;13.4;;;10.5;;
44126;SDS011;29786;50.798;7.302;2023-03-01T00:50:16;15.1;;;10.4;;
44126;SDS011;29786;50.798;7.302;2023-03-01T00:52:44;14.9;;;10.9;;
44126;SDS011;29786;50.798;7.302;2023-03-01T00:53:59;12.2;;;9.8;;
44126;SDS011;29786;50.798;7.302;2023-03-01T00:55:12;15.1;;;11;;
44126;SDS011;29786;50.798;7.302;2023-03-01T00:57:41;12.4;;;10.3;;
44126;SDS011;29786;50.798;7.302;2023-03-01T00:58:55;13.2;;;10.5;;
44126;SDS011;29786;50.798;7.302;2023-03-01T01:00:09;12.8;;;11;;
44126;SDS011;29786;50.798;7.302;2023-03-01T01:01:24;13.1;;;10.3;;
44126;SDS011;29786;50.798;7.302;2023-03-01T01:03:53;12.5;;;10.3;;
44126;SDS011;29786;50.798;7.302;2023-03-01T01:05:06;13;;;10.6;;
44126;SDS011;29786;50.798;7.302;2023-03-01T01:06:21;12;;;10.7;;
44126;SDS011;29786;50.798;7.302;2023-03-01T01:08:48;13.3;;;10.7;;
44126;SDS011;29786;50.798;7.302;2023-03-01T01:10:02;13;;;9.9;;
44126;SDS011;29786;50.798;7.302;2023-03-01T01:11:16;12.7;;;10.7;;
44126;SDS011;29786;50.798;7.302;2023-03-01T01:13:45;12;;;10.6;;
44126;SDS011;29786;50.798;7.302;2023-03-01T01:14:59;13.2;;;10.4;;
44126;SDS011;29786;50.798;7.302;2023-03-01T01:16:16;12.4;;;10.6;;
44126;SDS011;29786;50.798;7.302;2023-03-01T01:18:41;12.4;;;10.8;;
44126;SDS011;29786;50.798;7.302;2023-03-01T01:19:55;13.4;;;10.8;;
44126;SDS011;29786;50.798;7.302;2023-03-01T01:21:10;12.9;;;10.7;;
44126;SDS011;29786;50.798;7.302;2023-03-01T01:22:23;12.6;;;9.9;;
44126;SDS011;29786;50.798;7.302;2023-03-01T01:24:52;12.8;;;10.3;;
44126;SDS011;29786;50.798;7.302;2023-03-01T01:26:06;16.3;;;10.5;;
44126;SDS011;29786;50.798;7.302;2023-03-01T01:27:20;12.3;;;10.8;;
44126;SDS011;29786;50.798;7.302;2023-03-01T01:29:48;12.5;;;10.1;;
44126;SDS011;29786;50.798;7.302;2023-03-01T01:31:03;11.6;;;10.4;;
44126;SDS011;29786;50.798;7.302;2023-03-01T01:32:16;13.2;;;10.3;;
44126;SDS011;29786;50.798;7.302;2023-03-01T01:34:45;13;;;10.1;;
44126;SDS011;29786;50.798;7.302;2023-03-01T01:35:59;14.6;;;10.8;;
44126;SDS011;29786;50.798;7.302;2023-03-01T01:37:13;12.6;;;10.5;;
44126;SDS011;29786;50.798;7.302;2023-03-01T01:39:41;12.5;;;10.6;;
44126;SDS011;29786;50.798;7.302;2023-03-01T01:40:55;11.5;;;9.5;;
44126;SDS011;29786;50.798;7.302;2023-03-01T01:42:13;13.2;;;10.6;;
44126;SDS011;29786;50.798;7.302;2023-03-01T01:43:25;12.5;;;10.6;;
44126;SDS011;29786;50.798;7.302;2023-03-01T01:45:53;13.6;;;10.7;;
44126;SDS011;29786;50.798;7.302;2023-03-01T01:47:07;12.3;;;10.3;;
44126;SDS011;29786;50.798;7.302;2023-03-01T01:48:21;13.8;;;11;;
44126;SDS011;29786;50.798;7.302;2023-03-01T01:50:51;13.9;;;10;;
44126;SDS011;29786;50.798;7.302;2023-03-01T01:52:11;14.4;;;10.4;;
44126;SDS011;29786;50.798;7.302;2023-03-01T01:53:17;12.7;;;10.7;;
44126;SDS011;29786;50.798;7.302;2023-03-01T01:55:46;14.1;;;11;;
44126;SDS011;29786;50.798;7.302;2023-03-01T01:57:00;12.8;;;10.4;;
44126;SDS011;29786;50.798;7.302;2023-03-01T01:58:14;11.6;;;10.3;;
44126;SDS011;29786;50.798;7.302;2023-03-01T01:59:27;13.6;;;10.7;;
44126;SDS011;29786;50.798;7.302;2023-03-01T02:00:41;12.8;;;10.4;;
44126;SDS011;29786;50.798;7.302;2023-03-01T02:01:56;12.8;;;10.5;;
44126;SDS011;29786;50.798;7.302;2023-03-01T02:03:11;13.5;;;10.5;;
44126;SDS011;29786;50.798;7.302;2023-03-01T02:04:24;13;;;10.4;;
44126;SDS011;29786;50.798;7.302;2023-03-01T02:07:01;12.9;;;10.7;;
44126;SDS011;29786;50.798;7.302;2023-03-01T02:08:06;13.6;;;11.1;;
44126;SDS011;29786;50.798;7.302;2023-03-01T02:09:20;13.1;;;10.5;;
44126;SDS011;29786;50.798;7.302;2023-03-01T02:11:49;13.4;;;11.2;;
44126;SDS011;29786;50.798;7.302;2023-03-01T02:13:03;12.3;;;10.4;;
44126;SDS011;29786;50.798;7.302;2023-03-01T02:14:17;13.8;;;10.3;;
44126;SDS011;29786;50.798;7.302;2023-03-01T02:16:45;13.1;;;11.3;;
44126;SDS011;29786;50.798;7.302;2023-03-01T02:18:00;13.5;;;11.2;;
44126;SDS011;29786;50.798;7.302;2023-03-01T02:19:18;13.6;;;11.5;;
44126;SDS011;29786;50.798;7.302;2023-03-01T02:21:47;13.3;;;11;;
44126;SDS011;29786;50.798;7.302;2023-03-01T02:22:56;13.7;;;10.8;;
44126;SDS011;29786;50.798;7.302;2023-03-01T02:24:14;12.8;;;11;;
44126;SDS011;29786;50.798;7.302;2023-03-01T02:25:41;13.4;;;10.6;;
44126;SDS011;29786;50.798;7.302;2023-03-01T02:27:56;13.7;;;10.9;;
44126;SDS011;29786;50.798;7.302;2023-03-01T02:29:07;12.3;;;11;;
44126;SDS011;29786;50.798;7.302;2023-03-01T02:30:21;15.3;;;11.5;;
44126;SDS011;29786;50.798;7.302;2023-03-01T02:32:49;13.4;;;10.9;;
44126;SDS011;29786;50.798;7.302;2023-03-01T02:34:03;13.8;;;11.7;;
44126;SDS011;29786;50.798;7.302;2023-03-01T02:35:17;14.2;;;10.6;;
44126;SDS011;29786;50.798;7.302;2023-03-01T02:37:46;14.6;;;11.6;;
44126;SDS011;29786;50.798;7.302;2023-03-01T02:39:00;15.6;;;11.7;;
44126;SDS011;29786;50.798;7.302;2023-03-01T02:40:16;14.6;;;11.3;;
44126;SDS011;29786;50.798;7.302;2023-03-01T02:42:46;14.8;;;11.7;;
44126;SDS011;29786;50.798;7.302;2023-03-01T02:43:56;12.8;;;10.6;;
44126;SDS011;29786;50.798;7.302;2023-03-01T02:45:10;14.9;;;10.8;;
44126;SDS011;29786;50.798;7.302;2023-03-01T02:46:25;13.7;;;11.3;;
44126;SDS011;29786;50.798;7.302;2023-03-01T02:48:54;15.6;;;11.2;;
44126;SDS011;29786;50.798;7.302;2023-03-01T02:50:11;14.6;;;11.5;;
44126;SDS011;29786;50.798;7.302;2023-03-01T02:51:41;12.9;;;10.5;;
44126;SDS011;29786;50.798;7.302;2023-03-01T02:53:54;14.2;;;11.4;;
44126;SDS011;29786;50.798;7.302;2023-03-01T02:55:08;12.8;;;10.6;;
44126;SDS011;29786;50.798;7.302;2023-03-01T02:56:17;13.3;;;11.1;;
44126;SDS011;29786;50.798;7.302;2023-03-01T02:58:46;13.4;;;11.1;;
44126;SDS011;29786;50.798;7.302;2023-03-01T03:00:02;16;;;11.4;;
44126;SDS011;29786;50.798;7.302;2023-03-01T03:01:14;14.5;;;11.5;;
44126;SDS011;29786;50.798;7.302;2023-03-01T03:03:42;16.1;;;12;;
44126;SDS011;29786;50.798;7.302;2023-03-01T03:04:56;13.4;;;12;;
44126;SDS011;29786;50.798;7.302;2023-03-01T03:06:10;13.4;;;12;;
44126;SDS011;29786;50.798;7.302;2023-03-01T03:07:25;15.1;;;12.6;;
44126;SDS011;29786;50.798;7.302;2023-03-01T03:09:53;15.7;;;12.5;;
44126;SDS011;29786;50.798;7.302;2023-03-01T03:11:07;16.4;;;12.8;;
44126;SDS011;29786;50.798;7.302;2023-03-01T03:12:21;13;;;11.2;;
44126;SDS011;29786;50.798;7.302;2023-03-01T03:14:49;12.7;;;10.7;;
44126;SDS011;29786;50.798;7.302;2023-03-01T03:16:04;12.8;;;11.3;;
44126;SDS011;29786;50.798;7.302;2023-03-01T03:17:18;13.7;;;11.5;;
44126;SDS011;29786;50.798;7.302;2023-03-01T03:19:46;14.6;;;11.7;;
44126;SDS011;29786;50.798;7.302;2023-03-01T03:21:00;15.8;;;13.3;;
44126;SDS011;29786;50.798;7.302;2023-03-01T03:22:14;16.3;;;12.3;;
44126;SDS011;29786;50.798;7.302;2023-03-01T03:24:42;15.1;;;12.1;;
44126;SDS011;29786;50.798;7.302;2023-03-01T03:25:57;13.7;;;11.3;;
44126;SDS011;29786;50.798;7.302;2023-03-01T03:27:11;14.9;;;12;;
44126;SDS011;29786;50.798;7.302;2023-03-01T03:28:25;15.4;;;12.5;;
44126;SDS011;29786;50.798;7.302;2023-03-01T03:30:53;17;;;12.3;;
44126;SDS011;29786;50.798;7.302;2023-03-01T03:32:07;14.7;;;12.4;;
44126;SDS011;29786;50.798;7.302;2023-03-01T03:33:21;16.6;;;12.9;;
44126;SDS011;29786;50.798;7.302;2023-03-01T03:35:50;15.1;;;12.2;;
44126;SDS011;29786;50.798;7.302;2023-03-01T03:37:04;15;;;11.8;;
44126;SDS011;29786;50.798;7.302;2023-03-01T03:38:18;15.3;;;11.8;;
44126;SDS011;29786;50.798;7.302;2023-03-01T03:40:47;15.5;;;12.6;;
44126;SDS011;29786;50.798;7.302;2023-03-01T03:42:00;14.4;;;11.8;;
44126;SDS011;29786;50.798;7.302;2023-03-01T03:43:17;16.2;;;12;;
44126;SDS011;29786;50.798;7.302;2023-03-01T03:45:43;14.7;;;11.5;;
44126;SDS011;29786;50.798;7.302;2023-03-01T03:46:57;13.1;;;11.1;;
44126;SDS011;29786;50.798;7.302;2023-03-01T03:48:11;13.3;;;11.7;;
44126;SDS011;29786;50.798;7.302;2023-03-01T03:49:25;15.8;;;11.7;;
44126;SDS011;29786;50.798;7.302;2023-03-01T03:51:53;15.7;;;11.5;;
44126;SDS011;29786;50.798;7.302;2023-03-01T03:53:09;14.5;;;12.2;;
44126;SDS011;29786;50.798;7.302;2023-03-01T03:54:22;14.9;;;12;;
44126;SDS011;29786;50.798;7.302;2023-03-01T03:56:50;16.5;;;12;;
44126;SDS011;29786;50.798;7.302;2023-03-01T03:58:05;13.6;;;12.1;;
44126;SDS011;29786;50.798;7.302;2023-03-01T03:59:18;14.6;;;11.8;;
44126;SDS011;29786;50.798;7.302;2023-03-01T04:01:46;15.3;;;11.8;;
44126;SDS011;29786;50.798;7.302;2023-03-01T04:03:01;15.3;;;11.9;;
44126;SDS011;29786;50.798;7.302;2023-03-01T04:04:15;16.4;;;12.1;;
44126;SDS011;29786;50.798;7.302;2023-03-01T04:06:43;14.6;;;11.4;;
44126;SDS011;29786;50.798;7.302;2023-03-01T04:07:57;15.6;;;12.3;;
44126;SDS011;29786;50.798;7.302;2023-03-01T04:09:11;16.3;;;12.6;;
44126;SDS011;29786;50.798;7.302;2023-03-01T04:11:40;17.9;;;14.6;;
44126;SDS011;29786;50.798;7.302;2023-03-01T04:12:54;17.1;;;13.9;;
44126;SDS011;29786;50.798;7.302;2023-03-01T04:14:08;17.1;;;13.6;;
44126;SDS011;29786;50.798;7.302;2023-03-01T04:15:22;16.4;;;13.2;;
44126;SDS011;29786;50.798;7.302;2023-03-01T04:17:51;14.7;;;12.8;;
44126;SDS011;29786;50.798;7.302;2023-03-01T04:19:04;17;;;12.7;;
44126;SDS011;29786;50.798;7.302;2023-03-01T04:20:20;15.3;;;12.4;;
44126;SDS011;29786;50.798;7.302;2023-03-01T04:22:47;17.8;;;13.2;;
44126;SDS011;29786;50.798;7.302;2023-03-01T04:24:01;17.6;;;13.4;;
44126;SDS011;29786;50.798;7.302;2023-03-01T04:25:15;16.2;;;13.4;;
44126;SDS011;29786;50.798;7.302;2023-03-01T04:27:43;21;;;15;;
44126;SDS011;29786;50.798;7.302;2023-03-01T04:28:57;19;;;14.3;;
44126;SDS011;29786;50.798;7.302;2023-03-01T04:30:12;17.8;;;14.1;;
44126;SDS011;29786;50.798;7.302;2023-03-01T04:32:40;16.7;;;13.2;;
44126;SDS011;29786;50.798;7.302;2023-03-01T04:33:54;17.6;;;13.6;;
44126;SDS011;29786;50.798;7.302;2023-03-01T04:35:08;16.9;;;13.7;;
44126;SDS011;29786;50.798;7.302;2023-03-01T04:36:23;20.1;;;15.2;;
44126;SDS011;29786;50.798;7.302;2023-03-01T04:38:51;18.9;;;14.4;;
44126;SDS011;29786;50.798;7.302;2023-03-01T04:40:05;17.6;;;14.7;;
44126;SDS011;29786;50.798;7.302;2023-03-01T04:41:20;29.5;;;20.1;;
44126;SDS011;29786;50.798;7.302;2023-03-01T04:43:47;19.4;;;14.1;;
44126;SDS011;29786;50.798;7.302;2023-03-01T04:45:01;16.7;;;13.3;;
44126;SDS011;29786;50.798;7.302;2023-03-01T04:46:17;16.3;;;12.9;;
44126;SDS011;29786;50.798;7.302;2023-03-01T04:48:44;20.7;;;13.1;;
44126;SDS011;29786;50.798;7.302;2023-03-01T04:49:58;18.2;;;13.5;;
44126;SDS011;29786;50.798;7.302;2023-03-01T04:51:12;19.2;;;14.8;;
44126;SDS011;29786;50.798;7.302;2023-03-01T04:53:40;19.7;;;15.4;;
44126;SDS011;29786;50.798;7.302;2023-03-01T04:54:54;19.6;;;15.5;;
44126;SDS011;29786;50.798;7.302;2023-03-01T04:56:08;19.2;;;15;;
44126;SDS011;29786;50.798;7.302;2023-03-01T04:57:22;22.8;;;15.2;;
44126;SDS011;29786;50.798;7.302;2023-03-01T04:59:51;18.7;;;15.2;;
44126;SDS011;29786;50.798;7.302;2023-03-01T05:01:08;17.1;;;14.2;;
44126;SDS011;29786;50.798;7.302;2023-03-01T05:02:19;17.5;;;13.8;;
44126;SDS011;29786;50.798;7.302;2023-03-01T05:04:47;20.8;;;13.6;;
44126;SDS011;29786;50.798;7.302;2023-03-01T05:06:01;19.1;;;14.4;;
44126;SDS011;29786;50.798;7.302;2023-03-01T05:07:16;17.6;;;13.9;;
44126;SDS011;29786;50.798;7.302;2023-03-01T05:09:44;18.5;;;13.7;;
44126;SDS011;29786;50.798;7.302;2023-03-01T05:10:58;15.7;;;12.7;;
44126;SDS011;29786;50.798;7.302;2023-03-01T05:12:12;17.4;;;13.7;;
44126;SDS011;29786;50.798;7.302;2023-03-01T05:14:40;16.6;;;12.4;;
44126;SDS011;29786;50.798;7.302;2023-03-01T05:15:56;16.6;;;13.3;;
44126;SDS011;29786;50.798;7.302;2023-03-01T05:17:09;17.4;;;13.7;;
44126;SDS011;29786;50.798;7.302;2023-03-01T05:18:23;18.1;;;14.3;;
44126;SDS011;29786;50.798;7.302;2023-03-01T05:20:51;20.8;;;16.8;;
44126;SDS011;29786;50.798;7.302;2023-03-01T05:22:05;18.2;;;14.8;;
44126;SDS011;29786;50.798;7.302;2023-03-01T05:23:19;18.9;;;14.2;;
44126;SDS011;29786;50.798;7.302;2023-03-01T05:25:48;22.4;;;17.8;;
44126;SDS011;29786;50.798;7.302;2023-03-01T05:27:02;19.7;;;14.5;;
44126;SDS011;29786;50.798;7.302;2023-03-01T05:28:16;19;;;14.5;;
44126;SDS011;29786;50.798;7.302;2023-03-01T05:30:44;21.6;;;16.7;;
44126;SDS011;29786;50.798;7.302;2023-03-01T05:31:58;20.9;;;14.4;;
44126;SDS011;29786;50.798;7.302;2023-03-01T05:33:12;20.1;;;14.8;;
44126;SDS011;29786;50.798;7.302;2023-03-01T05:35:41;18.3;;;14.4;;
44126;SDS011;29786;50.798;7.302;2023-03-01T05:36:55;17.8;;;14.6;;
44126;SDS011;29786;50.798;7.302;2023-03-01T05:38:09;18.7;;;13.8;;
44126;SDS011;29786;50.798;7.302;2023-03-01T05:39:23;18.2;;;13.5;;
44126;SDS011;29786;50.798;7.302;2023-03-01T05:41:52;17.4;;;13.7;;
44126;SDS011;29786;50.798;7.302;2023-03-01T05:43:06;19.9;;;13.8;;
44126;SDS011;29786;50.798;7.302;2023-03-01T05:44:20;18.1;;;13.3;;
44126;SDS011;29786;50.798;7.302;2023-03-01T05:46:48;17.2;;;13.2;;
44126;SDS011;29786;50.798;7.302;2023-03-01T05:48:02;19.7;;;14.8;;
44126;SDS011;29786;50.798;7.302;2023-03-01T05:49:16;16.9;;;12.6;;
44126;SDS011;29786;50.798;7.302;2023-03-01T05:51:48;17.8;;;13.7;;
44126;SDS011;29786;50.798;7.302;2023-03-01T05:52:59;18.8;;;14.8;;
44126;SDS011;29786;50.798;7.302;2023-03-01T05:54:13;18.4;;;14.6;;
44126;SDS011;29786;50.798;7.302;2023-03-01T05:56:41;18.5;;;14.8;;
44126;SDS011;29786;50.798;7.302;2023-03-01T05:57:57;18.4;;;15;;
44126;SDS011;29786;50.798;7.302;2023-03-01T05:59:09;20;;;14.6;;
44126;SDS011;29786;50.798;7.302;2023-03-01T06:00:23;19.4;;;14.5;;
44126;SDS011;29786;50.798;7.302;2023-03-01T06:02:53;19.3;;;15.4;;
44126;SDS011;29786;50.798;7.302;2023-03-01T06:04:06;22.2;;;14.5;;
44126;SDS011;29786;50.798;7.302;2023-03-01T06:05:20;19.6;;;14.5;;
44126;SDS011;29786;50.798;7.302;2023-03-01T06:07:48;18;;;14.3;;
44126;SDS011;29786;50.798;7.302;2023-03-01T06:09:03;19.2;;;14.4;;
44126;SDS011;29786;50.798;7.302;2023-03-01T06:10:17;19.6;;;14.6;;
44126;SDS011;29786;50.798;7.302;2023-03-01T06:12:45;18.8;;;14.6;;
44126;SDS011;29786;50.798;7.302;2023-03-01T06:13:59;19.2;;;14.5;;
44126;SDS011;29786;50.798;7.302;2023-03-01T06:15:14;21.9;;;16.7;;
44126;SDS011;29786;50.798;7.302;2023-03-01T06:17:42;19.3;;;14.6;;
44126;SDS011;29786;50.798;7.302;2023-03-01T06:18:55;19;;;14;;
44126;SDS011;29786;50.798;7.302;2023-03-01T06:20:10;20;;;14.9;;
44126;SDS011;29786;50.798;7.302;2023-03-01T06:21:23;20;;;15;;
44126;SDS011;29786;50.798;7.302;2023-03-01T06:23:52;21.8;;;14.8;;
44126;SDS011;29786;50.798;7.302;2023-03-01T06:25:06;21.1;;;14.8;;
44126;SDS011;29786;50.798;7.302;2023-03-01T06:26:20;21;;;15.6;;
44126;SDS011;29786;50.798;7.302;2023-03-01T06:28:48;21.9;;;16.2;;
44126;SDS011;29786;50.798;7.302;2023-03-01T06:30:02;19.4;;;14.8;;
44126;SDS011;29786;50.798;7.302;2023-03-01T06:31:17;18.4;;;14.6;;
44126;SDS011;29786;50.798;7.302;2023-03-01T06:33:45;19.7;;;14.4;;
44126;SDS011;29786;50.798;7.302;2023-03-01T06:34:59;20.1;;;15.2;;
44126;SDS011;29786;50.798;7.302;2023-03-01T06:36:13;20.7;;;15.3;;
44126;SDS011;29786;50.798;7.302;2023-03-01T06:38:41;18.9;;;14.6;;
44126;SDS011;29786;50.798;7.302;2023-03-01T06:39:55;19.5;;;15.6;;
44126;SDS011;29786;50.798;7.302;2023-03-01T06:41:10;21.2;;;14.8;;
44126;SDS011;29786;50.798;7.302;2023-03-01T06:42:24;18.4;;;14.4;;
44126;SDS011;29786;50.798;7.302;2023-03-01T06:44:52;21.3;;;14.7;;
44126;SDS011;29786;50.798;7.302;2023-03-01T06:46:06;20.2;;;14.8;;
44126;SDS011;29786;50.798;7.302;2023-03-01T06:47:20;18.5;;;14.5;;
44126;SDS011;29786;50.798;7.302;2023-03-01T06:49:49;22.1;;;15.2;;
44126;SDS011;29786;50.798;7.302;2023-03-01T06:51:03;20.6;;;16.1;;
44126;SDS011;29786;50.798;7.302;2023-03-01T06:52:17;20.7;;;15.5;;
44126;SDS011;29786;50.798;7.302;2023-03-01T06:54:45;22.2;;;15.7;;
44126;SDS011;29786;50.798;7.302;2023-03-01T06:55:59;21.9;;;16.8;;
44126;SDS011;29786;50.798;7.302;2023-03-01T06:57:13;23.1;;;16.8;;
44126;SDS011;29786;50.798;7.302;2023-03-01T06:59:42;22.2;;;16.6;;
44126;SDS011;29786;50.798;7.302;2023-03-01T07:00:56;23;;;15.7;;
44126;SDS011;29786;50.798;7.302;2023-03-01T07:02:10;22.4;;;16.6;;
44126;SDS011;29786;50.798;7.302;2023-03-01T07:03:24;20.1;;;14.5;;
44126;SDS011;29786;50.798;7.302;2023-03-01T07:05:52;23;;;16;;
44126;SDS011;29786;50.798;7.302;2023-03-01T07:07:06;20.8;;;15.7;;
44126;SDS011;29786;50.798;7.302;2023-03-01T07:08:20;19.4;;;15.3;;
44126;SDS011;29786;50.798;7.302;2023-03-01T07:10:54;21.3;;;15.9;;
44126;SDS011;29786;50.798;7.302;2023-03-01T07:12:03;19.7;;;15.5;;
44126;SDS011;29786;50.798;7.302;2023-03-01T07:13:17;21.9;;;16.4;;
44126;SDS011;29786;50.798;7.302;2023-03-01T07:15:45;19.8;;;15.3;;
44126;SDS011;29786;50.798;7.302;2023-03-01T07:16:59;21.1;;;15.4;;
44126;SDS011;29786;50.798;7.302;2023-03-01T07:18:14;21;;;15.7;;
44126;SDS011;29786;50.798;7.302;2023-03-01T07:20:42;18.6;;;14.8;;
44126;SDS011;29786;50.798;7.302;2023-03-01T07:21:56;19.8;;;15.8;;
44126;SDS011;29786;50.798;7.302;2023-03-01T07:23:10;19.2;;;15.2;;
44126;SDS011;29786;50.798;7.302;2023-03-01T07:24:24;21;;;15.2;;
44126;SDS011;29786;50.798;7.302;2023-03-01T07:26:53;20.7;;;15.6;;
44126;SDS011;29786;50.798;7.302;2023-03-01T07:28:07;21.7;;;15.7;;
44126;SDS011;29786;50.798;7.302;2023-03-01T07:29:21;19.8;;;15.6;;
44126;SDS011;29786;50.798;7.302;2023-03-01T07:31:49;24.4;;;15.8;;
44126;SDS011;29786;50.798;7.302;2023-03-01T07:33:03;20;;;14.5;;
44126;SDS011;29786;50.798;7.302;2023-03-01T07:34:17;20.5;;;15.2;;
44126;SDS011;29786;50.798;7.302;2023-03-01T07:36:46;18.6;;;14.5;;
44126;SDS011;29786;50.798;7.302;2023-03-01T07:38:00;20.4;;;15.4;;
44126;SDS011;29786;50.798;7.302;2023-03-01T07:39:14;21.3;;;14.9;;
44126;SDS011;29786;50.798;7.302;2023-03-01T07:41:42;19.4;;;15.3;;
44126;SDS011;29786;50.798;7.302;2023-03-01T07:42:57;19.9;;;14.5;;
44126;SDS011;29786;50.798;7.302;2023-03-01T07:44:10;18.4;;;14.3;;
44126;SDS011;29786;50.798;7.302;2023-03-01T07:45:25;18.4;;;14.8;;
44126;SDS011;29786;50.798;7.302;2023-03-01T07:47:53;18.9;;;14.6;;
44126;SDS011;29786;50.798;7.302;2023-03-01T07:49:07;20;;;15.2;;
44126;SDS011;29786;50.798;7.302;2023-03-01T07:50:21;19.6;;;14.5;;
44126;SDS011;29786;50.798;7.302;2023-03-01T07:52:49;18.9;;;13.7;;
44126;SDS011;29786;50.798;7.302;2023-03-01T07:54:03;19.8;;;14.7;;
44126;SDS011;29786;50.798;7.302;2023-03-01T07:55:18;18.9;;;13;;
44126;SDS011;29786;50.798;7.302;2023-03-01T07:57:46;19;;;14.9;;
44126;SDS011;29786;50.798;7.302;2023-03-01T07:59:00;17.9;;;12.8;;
44126;SDS011;29786;50.798;7.302;2023-03-01T08:00:14;19.4;;;14.4;;
44126;SDS011;29786;50.798;7.302;2023-03-01T08:02:42;19;;;13.9;;
44126;SDS011;29786;50.798;7.302;2023-03-01T08:03:56;18.4;;;14;;
44126;SDS011;29786;50.798;7.302;2023-03-01T08:05:11;20.2;;;13.6;;
44126;SDS011;29786;50.798;7.302;2023-03-01T08:06:25;17.9;;;14.2;;
44126;SDS011;29786;50.798;7.302;2023-03-01T08:08:53;16.8;;;13.6;;
44126;SDS011;29786;50.798;7.302;2023-03-01T08:10:07;17.2;;;12.9;;
44126;SDS011;29786;50.798;7.302;2023-03-01T08:11:21;18.8;;;14.4;;
44126;SDS011;29786;50.798;7.302;2023-03-01T08:13:50;16.2;;;13.6;;
44126;SDS011;29786;50.798;7.302;2023-03-01T08:15:04;18.1;;;14.2;;
44126;SDS011;29786;50.798;7.302;2023-03-01T08:16:18;18.9;;;13.5;;
44126;SDS011;29786;50.798;7.302;2023-03-01T08:18:46;15.8;;;12.2;;
44126;SDS011;29786;50.798;7.302;2023-03-01T08:20:00;20.7;;;13.6;;
44126;SDS011;29786;50.798;7.302;2023-03-01T08:21:15;16;;;12.8;;
44126;SDS011;29786;50.798;7.302;2023-03-01T08:23:43;16.3;;;13.1;;
44126;SDS011;29786;50.798;7.302;2023-03-01T08:24:57;17.4;;;13.9;;
44126;SDS011;29786;50.798;7.302;2023-03-01T08:26:12;19;;;13.5;;
44126;SDS011;29786;50.798;7.302;2023-03-01T08:27:25;16.4;;;12.2;;
44126;SDS011;29786;50.798;7.302;2023-03-01T08:29:53;16.9;;;12.9;;
44126;SDS011;29786;50.798;7.302;2023-03-01T08:31:24;18.7;;;13.2;;
44126;SDS011;29786;50.798;7.302;2023-03-01T08:32:22;17.8;;;12.7;;
44126;SDS011;29786;50.798;7.302;2023-03-01T08:34:50;18;;;13.1;;
44126;SDS011;29786;50.798;7.302;2023-03-01T08:36:04;16.2;;;13.6;;
44126;SDS011;29786;50.798;7.302;2023-03-01T08:37:18;18.4;;;13.4;;
44126;SDS011;29786;50.798;7.302;2023-03-01T08:39:46;20.5;;;14.4;;
44126;SDS011;29786;50.798;7.302;2023-03-01T08:41:01;18.3;;;12.4;;
44126;SDS011;29786;50.798;7.302;2023-03-01T08:42:15;15.1;;;12.3;;
44126;SDS011;29786;50.798;7.302;2023-03-01T08:44:43;16.1;;;12.9;;
44126;SDS011;29786;50.798;7.302;2023-03-01T08:45:57;16.3;;;12.2;;
44126;SDS011;29786;50.798;7.302;2023-03-01T08:47:11;16.6;;;12.4;;
44126;SDS011;29786;50.798;7.302;2023-03-01T08:49:39;15.1;;;12.2;;
44126;SDS011;29786;50.798;7.302;2023-03-01T08:50:54;18.2;;;13.5;;
44126;SDS011;29786;50.798;7.302;2023-03-01T08:52:08;15.7;;;12.4;;
44126;SDS011;29786;50.798;7.302;2023-03-01T08:53:22;17.3;;;12.8;;
44126;SDS011;29786;50.798;7.302;2023-03-01T08:55:50;17.9;;;13.6;;
44126;SDS011;29786;50.798;7.302;2023-03-01T08:57:04;16.2;;;13.1;;
44126;SDS011;29786;50.798;7.302;2023-03-01T08:58:18;17.4;;;12.6;;
44126;SDS011;29786;50.798;7.302;2023-03-01T09:00:47;17.4;;;12.6;;
44126;SDS011;29786;50.798;7.302;2023-03-01T09:02:01;17;;;12.3;;
44126;SDS011;29786;50.798;7.302;2023-03-01T09:03:15;17.9;;;13.3;;
44126;SDS011;29786;50.798;7.302;2023-03-01T09:05:43;17.8;;;13.6;;
44126;SDS011;29786;50.798;7.302;2023-03-01T09:06:57;16.9;;;13.9;;
44126;SDS011;29786;50.798;7.302;2023-03-01T09:08:11;16.9;;;13.9;;
44126;SDS011;29786;50.798;7.302;2023-03-01T09:10:40;14.5;;;12.2;;
44126;SDS011;29786;50.798;7.302;2023-03-01T09:11:54;18.3;;;12.2;;
44126;SDS011;29786;50.798;7.302;2023-03-01T09:13:08;16.9;;;13;;
44126;SDS011;29786;50.798;7.302;2023-03-01T09:14:22;16.7;;;12.5;;
44126;SDS011;29786;50.798;7.302;2023-03-01T09:16:50;16.1;;;11.4;;
44126;SDS011;29786;50.798;7.302;2023-03-01T09:18:05;15.2;;;12.1;;
44126;SDS011;29786;50.798;7.302;2023-03-01T09:19:19;16.3;;;12.4;;
44126;SDS011;29786;50.798;7.302;2023-03-01T09:21:47;16.6;;;12.3;;
44126;SDS011;29786;50.798;7.302;2023-03-01T09:23:01;16;;;12.1;;
44126;SDS011;29786;50.798;7.302;2023-03-01T09:24:15;17;;;12.2;;
44126;SDS011;29786;50.798;7.302;2023-03-01T09:26:43;15.1;;;11.2;;
44126;SDS011;29786;50.798;7.302;2023-03-01T09:27:58;17.2;;;11.6;;
44126;SDS011;29786;50.798;7.302;2023-03-01T09:29:12;15.9;;;13.1;;
44126;SDS011;29786;50.798;7.302;2023-03-01T09:31:40;17.3;;;12.6;;
44126;SDS011;29786;50.798;7.302;2023-03-01T09:32:55;15.2;;;11.7;;
44126;SDS011;29786;50.798;7.302;2023-03-01T09:34:08;14;;;10.9;;
44126;SDS011;29786;50.798;7.302;2023-03-01T09:35:22;15;;;11.2;;
44126;SDS011;29786;50.798;7.302;2023-03-01T09:37:51;16.3;;;10.8;;
44126;SDS011;29786;50.798;7.302;2023-03-01T09:39:05;15.3;;;10.5;;
44126;SDS011;29786;50.798;7.302;2023-03-01T09:40:20;15.4;;;11;;
44126;SDS011;29786;50.798;7.302;2023-03-01T09:41:50;14.3;;;10.3;;
44126;SDS011;29786;50.798;7.302;2023-03-01T09:42:50;12.3;;;9.8;;